Friars Hill, West Virginia
Current Conditions -  °F | °C
As of 7:55 AM on Tuesday 21 Oct 2014 (Local Time) from KLWB Reporting Station
Haze Haze  
Wind Chill: 47°   Ceiling: 4800
Heat Index: 47°   Visibility: 3mi
Dew Point: 45°   Wind: 0mph
Humidity: 94%   Direction: NA
Pressure: 29.93"   Gusts: NA
Location:  38.0307°N, 80.4756°W
Report Text: KLWB 211155Z AUTO 00000KT 3SM BR SCT026 SCT037 BKN048 08/07 A2993 RMK AO2 60002 70002 T00820073 10105 20070
Loading
Personal Weather Stations






























Interactive Weather Map
Tropical Storm Tracking
New forecast layout! Learn more

10-Day Weather Forecast

Advertisements
Track Severe Weather on mobile